Time;durP1;ratioP1;P1;durP2;ratioP2;P2;SDS_P1;SDS_P2;PMS_P1;PMS_P2;Temp;Humidity;BMP_temperature;BMP_pressure;BME280_temperature;BME280_humidity;BME280_pressure;Samples;Min_cycle;Max_cycle;Signal;HPM_P1;HPM_P2
2023/01/05 06:52:59;;;;;;;44.38;32.25;;;;;;;;;;5060632;28;20747;-67
2023/01/05 06:55:26;;;;;;;42.17;25.45;;;;;;;;;;5058356;28;20127;-66
2023/01/05 06:57:53;;;;;;;49.90;28.20;;;;;;;;;;5056625;28;20047;-66
2023/01/05 07:00:26;;;;;;;55.53;31.73;;;;;;;;;;5056177;28;20046;-66
2023/01/05 07:02:53;;;;;;;61.75;34.13;;;;;;;;;;5064600;28;20653;-66
2023/01/05 07:05:19;;;;;;;53.00;34.53;;;;;;;;;;5054391;28;20048;-67
2023/01/05 07:07:46;;;;;;;58.55;31.17;;;;;;;;;;5058475;28;20856;-66
2023/01/05 07:10:13;;;;;;;55.88;34.63;;;;;;;;;;5062649;28;20040;-66
2023/01/05 07:12:39;;;;;;;54.95;30.48;;;;;;;;;;5058840;28;20156;-67
2023/01/05 07:15:06;;;;;;;113.25;62.97;;;;;;;;;;5057939;28;20048;-67
2023/01/05 07:17:33;;;;;;;72.65;44.58;;;;;;;;;;5055853;28;20052;-67
2023/01/05 07:19:59;;;;;;;66.43;36.28;;;;;;;;;;5058792;28;20040;-69
2023/01/05 07:22:27;;;;;;;55.17;34.92;;;;;;;;;;5064824;28;20051;-67
2023/01/05 07:24:53;;;;;;;51.80;28.60;;;;;;;;;;5057059;28;20056;-67
2023/01/05 07:27:20;;;;;;;57.22;33.83;;;;;;;;;;5054873;28;20731;-68
2023/01/05 07:29:47;;;;;;;51.60;28.98;;;;;;;;;;5060794;28;20781;-67
2023/01/05 07:32:13;;;;;;;56.33;32.80;;;;;;;;;;5059213;28;20074;-69
2023/01/05 07:34:40;;;;;;;60.35;36.13;;;;;;;;;;5060143;28;20090;-68
2023/01/05 07:37:07;;;;;;;55.97;35.97;;;;;;;;;;5054565;28;20150;-68
2023/01/05 07:39:33;;;;;;;52.75;33.33;;;;;;;;;;5057085;28;20039;-68
2023/01/05 07:42:00;;;;;;;57.33;42.10;;;;;;;;;;5055412;28;20067;-69
2023/01/05 07:44:27;;;;;;;68.22;44.55;;;;;;;;;;5061029;28;20114;-68
2023/01/05 07:46:53;;;;;;;57.70;29.52;;;;;;;;;;5064580;28;21043;-68
2023/01/05 07:49:20;;;;;;;47.78;31.17;;;;;;;;;;5057456;28;20582;-67
2023/01/05 07:51:46;;;;;;;46.50;32.78;;;;;;;;;;5061564;28;20908;-67
2023/01/05 07:54:13;;;;;;;49.67;32.45;;;;;;;;;;5062158;28;20072;-67
2023/01/05 07:56:40;;;;;;;43.95;26.05;;;;;;;;;;5062769;28;20493;-66
2023/01/05 07:59:07;;;;;;;35.28;25.80;;;;;;;;;;5059364;28;20036;-67
2023/01/05 08:01:33;;;;;;;43.53;26.30;;;;;;;;;;5053491;28;20098;-67
2023/01/05 08:04:00;;;;;;;41.78;27.48;;;;;;;;;;5046894;28;20044;-68
2023/01/05 08:06:26;;;;;;;37.53;26.45;;;;;;;;;;5043129;28;20048;-68
2023/01/05 08:08:54;;;;;;;39.83;22.45;;;;;;;;;;5045896;28;20049;-68
2023/01/05 08:11:21;;;;;;;41.95;27.52;;;;;;;;;;5039526;28;20036;-68
2023/01/05 08:14:01;;;;;;;44.88;27.70;;;;;;;;;;5045857;28;20048;-68
2023/01/05 08:16:32;;;;;;;35.53;20.90;;;;;;;;;;5044153;28;20045;-68
2023/01/05 08:18:59;;;;;;;36.78;21.23;;;;;;;;;;5048392;28;20052;-69
2023/01/05 08:21:25;;;;;;;30.70;17.35;;;;;;;;;;5043162;28;20053;-68
2023/01/05 08:23:52;;;;;;;31.55;18.42;;;;;;;;;;5054672;28;20071;-68
2023/01/05 08:26:21;;;;;;;32.40;18.42;;;;;;;;;;5040709;28;20051;-67
2023/01/05 08:28:47;;;;;;;;;;;;;;;;;;5050646;28;20756;-69
2023/01/05 08:31:24;;;;;;;28.50;16.95;;;;;;;;;;5043183;28;19970;-68
2023/01/05 08:33:56;;;;;;;33.40;19.33;;;;;;;;;;5046987;28;20065;-68
2023/01/05 08:36:23;;;;;;;32.05;17.77;;;;;;;;;;5046948;28;20712;-68
2023/01/05 08:38:51;;;;;;;36.40;22.67;;;;;;;;;;5049751;28;20533;-68
2023/01/05 08:41:18;;;;;;;31.02;18.17;;;;;;;;;;5045152;28;20169;-69
2023/01/05 08:43:49;;;;;;;31.33;18.80;;;;;;;;;;5047677;28;20095;-68
2023/01/05 08:46:16;;;;;;;35.72;22.42;;;;;;;;;;5052390;28;20667;-68
2023/01/05 08:48:47;;;;;;;36.63;20.17;;;;;;;;;;5046266;28;20052;-68
2023/01/05 08:51:13;;;;;;;34.28;22.02;;;;;;;;;;5052156;28;20622;-66
2023/01/05 08:53:40;;;;;;;33.50;22.90;;;;;;;;;;5041298;28;20060;-67
2023/01/05 08:56:07;;;;;;;33.63;22.92;;;;;;;;;;5050684;28;20731;-67
2023/01/05 08:58:35;;;;;;;38.58;20.10;;;;;;;;;;5042245;28;20032;-67
2023/01/05 09:01:05;;;;;;;37.03;21.63;;;;;;;;;;5046242;28;20127;-67
2023/01/05 09:03:31;;;;;;;31.85;17.95;;;;;;;;;;5040159;28;20048;-67
2023/01/05 09:06:01;;;;;;;27.77;16.85;;;;;;;;;;5048215;28;20056;-67
2023/01/05 09:08:28;;;;;;;32.63;18.83;;;;;;;;;;5038025;28;20583;-66
2023/01/05 09:11:04;;;;;;;29.95;19.77;;;;;;;;;;5040036;28;20040;-66
2023/01/05 09:13:30;;;;;;;23.77;14.70;;;;;;;;;;5045219;28;20044;-67
2023/01/05 09:16:02;;;;;;;29.40;21.73;;;;;;;;;;5048271;28;20041;-67
2023/01/05 09:18:28;;;;;;;26.80;15.38;;;;;;;;;;5046813;28;20039;-66
2023/01/05 09:20:55;;;;;;;26.95;16.88;;;;;;;;;;5044312;28;20048;-66
2023/01/05 09:23:21;;;;;;;21.50;15.40;;;;;;;;;;5052659;28;20036;-67
2023/01/05 09:25:48;;;;;;;22.65;14.15;;;;;;;;;;5038511;28;20568;-67
2023/01/05 09:28:15;;;;;;;25.63;16.45;;;;;;;;;;5043481;28;20056;-67
2023/01/05 09:30:42;;;;;;;24.17;14.90;;;;;;;;;;5038590;28;20134;-67
2023/01/05 09:33:16;;;;;;;26.48;17.85;;;;;;;;;;5043073;28;20139;-67
2023/01/05 09:35:43;;;;;;;22.30;16.88;;;;;;;;;;5048014;28;20535;-66
2023/01/05 09:38:09;;;;;;;22.48;15.40;;;;;;;;;;5048858;28;20104;-66
2023/01/05 09:40:41;;;;;;;25.83;14.13;;;;;;;;;;5046713;28;20056;-67
2023/01/05 09:43:15;;;;;;;29.48;17.85;;;;;;;;;;5039646;28;20088;-67
2023/01/05 09:45:42;;;;;;;33.53;26.48;;;;;;;;;;5041382;28;20075;-66
2023/01/05 09:48:10;;;;;;;19.98;13.38;;;;;;;;;;5044461;28;20055;-66
2023/01/05 09:50:37;;;;;;;19.90;11.52;;;;;;;;;;5041752;28;20629;-67
2023/01/05 09:53:04;;;;;;;26.70;19.15;;;;;;;;;;5041648;28;20041;-67
2023/01/05 09:55:31;;;;;;;16.33;10.93;;;;;;;;;;5047820;28;20060;-68
2023/01/05 09:57:59;;;;;;;17.90;14.88;;;;;;;;;;5042818;28;20083;-67
2023/01/05 10:00:28;;;;;;;19.35;12.55;;;;;;;;;;5051992;28;20045;-69
2023/01/05 10:02:57;;;;;;;15.18;13.00;;;;;;;;;;5042105;28;20090;-68
2023/01/05 10:05:25;;;;;;;14.95;11.23;;;;;;;;;;5045921;28;20045;-69
2023/01/05 10:07:54;;;;;;;16.52;10.65;;;;;;;;;;5048687;28;20134;-68
2023/01/05 10:10:20;;;;;;;;;;;;;;;;;;5043707;28;20041;-68
2023/01/05 10:13:04;;;;;;;12.93;10.73;;;;;;;;;;5039838;28;20141;-68
2023/01/05 10:15:46;;;;;;;11.20;7.78;;;;;;;;;;5042592;28;20475;-68
2023/01/05 10:18:14;;;;;;;11.82;8.32;;;;;;;;;;5041025;28;20072;-68
2023/01/05 10:21:00;;;;;;;17.30;10.80;;;;;;;;;;5044890;28;20037;-69
2023/01/05 10:23:45;;;;;;;13.55;12.13;;;;;;;;;;5045387;28;21290;-67
2023/01/05 10:26:32;;;;;;;13.63;10.60;;;;;;;;;;5051506;28;20053;-67
2023/01/05 10:29:22;;;;;;;13.85;10.80;;;;;;;;;;5044630;28;20686;-68
2023/01/05 10:32:04;;;;;;;12.18;10.20;;;;;;;;;;5053119;28;20418;-68
2023/01/05 10:35:03;;;;;;;13.60;11.43;;;;;;;;;;5044151;28;20044;-66
2023/01/05 10:37:49;;;;;;;14.75;11.18;;;;;;;;;;5031018;28;20045;-67
2023/01/05 10:40:30;;;;;;;12.50;10.20;;;;;;;;;;5047814;28;20052;-67
2023/01/05 10:43:16;;;;;;;12.52;10.02;;;;;;;;;;5050184;28;20094;-67
2023/01/05 10:45:43;;;;;;;10.60;6.90;;;;;;;;;;5040660;28;20234;-68
2023/01/05 10:48:33;;;;;;;10.23;8.45;;;;;;;;;;5047934;28;20044;-68
2023/01/05 10:51:00;;;;;;;13.18;7.38;;;;;;;;;;5043471;28;20075;-68
2023/01/05 10:53:27;;;;;;;12.40;8.02;;;;;;;;;;5050425;28;20116;-67
2023/01/05 10:56:05;;;;;;;14.00;7.93;;;;;;;;;;5042290;28;21248;-67
2023/01/05 10:58:33;;;;;;;12.23;7.47;;;;;;;;;;5039711;28;20075;-68
2023/01/05 11:01:29;;;;;;;13.20;8.18;;;;;;;;;;5038082;28;20049;-68
2023/01/05 11:04:06;;;;;;;14.38;11.80;;;;;;;;;;5038149;28;20044;-69
2023/01/05 11:07:00;;;;;;;13.85;10.10;;;;;;;;;;5044918;28;20044;-69
2023/01/05 11:09:27;;;;;;;12.75;7.88;;;;;;;;;;5039949;28;20049;-69
2023/01/05 11:12:01;;;;;;;11.20;7.13;;;;;;;;;;5041802;28;20036;-69
2023/01/05 11:14:31;;;;;;;10.13;7.63;;;;;;;;;;5046525;28;20101;-70
2023/01/05 11:17:02;;;;;;;13.82;9.18;;;;;;;;;;5042543;28;20067;-68
2023/01/05 11:19:36;;;;;;;11.35;9.18;;;;;;;;;;5046539;28;20099;-69
2023/01/05 11:22:03;;;;;;;10.95;8.95;;;;;;;;;;5044846;28;20048;-66
2023/01/05 11:24:31;;;;;;;12.82;8.90;;;;;;;;;;5045606;28;20048;-67
2023/01/05 11:27:02;;;;;;;10.98;8.32;;;;;;;;;;5037817;28;20049;-67
2023/01/05 11:29:29;;;;;;;13.63;10.63;;;;;;;;;;5039999;28;20582;-67
2023/01/05 11:31:57;;;;;;;12.90;8.20;;;;;;;;;;5038186;28;20037;-67
2023/01/05 11:34:44;;;;;;;10.75;7.22;;;;;;;;;;5037923;28;20045;-68
2023/01/05 11:37:11;;;;;;;12.23;9.90;;;;;;;;;;5034926;28;20051;-68
2023/01/05 11:39:39;;;;;;;15.02;9.75;;;;;;;;;;5046857;28;20043;-68
2023/01/05 11:42:14;;;;;;;12.02;8.32;;;;;;;;;;5043521;28;20045;-68
2023/01/05 11:44:57;;;;;;;12.52;7.57;;;;;;;;;;5040729;28;20057;-68
2023/01/05 11:47:26;;;;;;;10.93;8.23;;;;;;;;;;5043708;28;20122;-68
2023/01/05 11:50:13;;;;;;;13.00;8.52;;;;;;;;;;5043431;28;20715;-67
2023/01/05 11:52:41;;;;;;;11.45;8.93;;;;;;;;;;5045305;28;20040;-69
2023/01/05 11:55:29;;;;;;;11.48;8.20;;;;;;;;;;5056737;28;20123;-67
2023/01/05 11:58:11;;;;;;;10.65;6.63;;;;;;;;;;5055343;28;20041;-67
2023/01/05 12:00:46;;;;;;;13.00;9.23;;;;;;;;;;5048140;28;20624;-68
2023/01/05 12:03:22;;;;;;;12.77;10.23;;;;;;;;;;5052431;28;20045;-68
2023/01/05 12:05:51;;;;;;;13.05;9.38;;;;;;;;;;5047350;28;20057;-68
2023/01/05 12:08:29;;;;;;;13.75;12.02;;;;;;;;;;5048820;28;20068;-67
2023/01/05 12:10:59;;;;;;;13.73;8.57;;;;;;;;;;5044625;28;20056;-68
2023/01/05 12:13:34;;;;;;;11.73;8.13;;;;;;;;;;5045518;28;20040;-68
2023/01/05 12:16:03;;;;;;;11.98;8.15;;;;;;;;;;5041684;28;20045;-67
2023/01/05 12:18:41;;;;;;;13.40;9.95;;;;;;;;;;5041024;28;20421;-67
2023/01/05 12:21:30;;;;;;;14.55;12.23;;;;;;;;;;5039324;28;20045;-67
2023/01/05 12:23:57;;;;;;;16.92;9.90;;;;;;;;;;5046081;28;20045;-68
2023/01/05 12:26:28;;;;;;;20.95;12.23;;;;;;;;;;5041510;28;20041;-67
2023/01/05 12:28:54;;;;;;;12.82;10.32;;;;;;;;;;5045867;28;20098;-67
2023/01/05 12:31:50;;;;;;;11.40;10.07;;;;;;;;;;5041854;28;20041;-67
2023/01/05 12:34:40;;;;;;;11.23;8.27;;;;;;;;;;5041978;28;20044;-67
2023/01/05 12:37:18;;;;;;;14.02;8.15;;;;;;;;;;5045417;28;20793;-67
2023/01/05 12:39:53;;;;;;;12.45;8.13;;;;;;;;;;5045667;28;20122;-67
2023/01/05 12:42:58;;;;;;;12.15;10.63;;;;;;;;;;5046590;28;20049;-66
2023/01/05 12:45:48;;;;;;;14.90;10.88;;;;;;;;;;5037410;28;20052;-66
2023/01/05 12:48:17;;;;;;;15.50;11.30;;;;;;;;;;5018606;28;20079;-67
2023/01/05 12:50:46;;;;;;;18.38;13.52;;;;;;;;;;5036969;28;20048;-67
2023/01/05 12:53:16;;;;;;;13.50;8.88;;;;;;;;;;5039985;28;20855;-66
2023/01/05 12:55:45;;;;;;;14.07;7.70;;;;;;;;;;5041849;28;20048;-67
2023/01/05 12:58:15;;;;;;;13.38;9.05;;;;;;;;;;5039527;28;20041;-66
2023/01/05 13:00:45;;;;;;;12.15;10.10;;;;;;;;;;5045368;28;20175;-66
2023/01/05 13:03:28;;;;;;;13.23;8.15;;;;;;;;;;5038045;28;20068;-66
2023/01/05 13:06:10;;;;;;;13.15;9.98;;;;;;;;;;5034381;28;20049;-68
2023/01/05 13:08:45;;;;;;;14.98;9.15;;;;;;;;;;5031218;28;20158;-68
2023/01/05 13:11:16;;;;;;;12.15;9.02;;;;;;;;;;5043511;28;20033;-67
2023/01/05 13:13:46;;;;;;;11.77;9.95;;;;;;;;;;5036686;28;20668;-67
2023/01/05 13:16:23;;;;;;;12.90;9.40;;;;;;;;;;5048865;28;20049;-68
2023/01/05 13:19:10;;;;;;;11.88;6.82;;;;;;;;;;5045001;28;20048;-68
2023/01/05 13:21:40;;;;;;;13.15;7.35;;;;;;;;;;5042666;28;20040;-68
2023/01/05 13:24:30;;;;;;;11.35;8.80;;;;;;;;;;5036970;28;20530;-67
2023/01/05 13:26:58;;;;;;;9.60;6.03;;;;;;;;;;5035974;28;20476;-67
2023/01/05 13:29:30;;;;;;;12.20;7.97;;;;;;;;;;5042435;28;20032;-66
2023/01/05 13:31:57;;;;;;;12.57;10.27;;;;;;;;;;5043175;28;20044;-66
2023/01/05 13:34:30;;;;;;;14.00;11.65;;;;;;;;;;5038557;28;20049;-67
2023/01/05 13:37:15;;;;;;;11.18;8.88;;;;;;;;;;5037946;28;20052;-67
2023/01/05 13:39:56;;;;;;;11.57;9.63;;;;;;;;;;5041748;28;20044;-66
2023/01/05 13:42:23;;;;;;;11.32;9.35;;;;;;;;;;5048850;28;20040;-65
2023/01/05 13:44:49;;;;;;;11.98;10.57;;;;;;;;;;5038115;28;20711;-67
2023/01/05 13:47:34;;;;;;;12.27;10.77;;;;;;;;;;5040923;28;20038;-67
2023/01/05 13:50:21;;;;;;;10.90;9.15;;;;;;;;;;5042184;28;20518;-67
2023/01/05 13:52:54;;;;;;;8.45;5.30;;;;;;;;;;5035364;28;20092;-67
2023/01/05 13:55:22;;;;;;;10.75;6.30;;;;;;;;;;5040498;28;20045;-67
2023/01/05 13:57:54;;;;;;;11.20;6.32;;;;;;;;;;5036524;28;20053;-67
2023/01/05 14:00:32;;;;;;;12.50;7.85;;;;;;;;;;5038397;28;20467;-67
2023/01/05 14:03:05;;;;;;;9.40;8.40;;;;;;;;;;5044175;28;20159;-67
2023/01/05 14:05:37;;;;;;;9.00;6.80;;;;;;;;;;5041953;28;20049;-67
2023/01/05 14:08:05;;;;;;;11.52;8.82;;;;;;;;;;5038420;28;20041;-67
2023/01/05 14:10:32;;;;;;;11.43;9.05;;;;;;;;;;5042639;28;20041;-68
2023/01/05 14:12:59;;;;;;;9.90;7.70;;;;;;;;;;5037275;28;20386;-67
2023/01/05 14:15:26;;;;;;;10.20;8.40;;;;;;;;;;5044346;28;20700;-67
2023/01/05 14:17:54;;;;;;;10.38;8.27;;;;;;;;;;5038293;28;20041;-68
2023/01/05 14:20:20;;;;;;;;;;;;;;;;;;5041330;28;20087;-67
2023/01/05 14:22:47;;;;;;;9.55;6.57;;;;;;;;;;5037907;28;20559;-68
2023/01/05 14:25:33;;;;;;;12.80;11.02;;;;;;;;;;5034302;28;20147;-67
2023/01/05 14:28:18;;;;;;;13.82;8.18;;;;;;;;;;5038133;28;20041;-68
2023/01/05 14:30:45;;;;;;;11.82;10.48;;;;;;;;;;5038892;28;20484;-68
2023/01/05 14:33:12;;;;;;;11.38;10.27;;;;;;;;;;5033608;28;20122;-68
2023/01/05 14:35:39;;;;;;;14.57;10.23;;;;;;;;;;5037162;28;20049;-67
2023/01/05 14:38:14;;;;;;;13.02;10.65;;;;;;;;;;5042311;28;20041;-68
2023/01/05 14:40:47;;;;;;;14.40;12.95;;;;;;;;;;5039055;28;20049;-68
2023/01/05 14:43:22;;;;;;;15.30;12.52;;;;;;;;;;5047345;28;20060;-68
2023/01/05 14:45:58;;;;;;;14.52;10.85;;;;;;;;;;5049177;28;20606;-66
2023/01/05 14:48:30;;;;;;;16.42;8.80;;;;;;;;;;5049351;28;20044;-67
2023/01/05 14:51:09;;;;;;;27.35;12.95;;;;;;;;;;5043323;28;20072;-68
2023/01/05 14:53:40;;;;;;;19.60;10.18;;;;;;;;;;5042222;28;20099;-68
2023/01/05 14:56:06;;;;;;;14.65;10.13;;;;;;;;;;5041389;28;20052;-68
2023/01/05 14:58:36;;;;;;;19.58;10.98;;;;;;;;;;5049405;28;20068;-68
2023/01/05 15:01:15;;;;;;;26.98;13.00;;;;;;;;;;5042188;28;20136;-68
2023/01/05 15:03:57;;;;;;;14.65;9.52;;;;;;;;;;5043650;28;20110;-69
2023/01/05 15:06:33;;;;;;;14.45;8.43;;;;;;;;;;5042799;28;20702;-67
2023/01/05 15:09:03;;;;;;;18.08;9.93;;;;;;;;;;5044694;28;20044;-68
2023/01/05 15:11:48;;;;;;;13.75;8.13;;;;;;;;;;5038959;28;20102;-67
2023/01/05 15:14:34;;;;;;;18.42;11.60;;;;;;;;;;5043744;28;20049;-68
2023/01/05 15:17:10;;;;;;;22.75;13.15;;;;;;;;;;5041611;28;20043;-68
2023/01/05 15:19:43;;;;;;;24.90;11.93;;;;;;;;;;5048020;28;20525;-68
2023/01/05 15:22:29;;;;;;;17.70;11.60;;;;;;;;;;5046608;28;20037;-69
2023/01/05 15:25:15;;;;;;;17.13;11.00;;;;;;;;;;5051352;28;20740;-68
2023/01/05 15:27:52;;;;;;;18.98;12.25;;;;;;;;;;5046935;28;20124;-67
2023/01/05 15:30:19;;;;;;;16.75;12.15;;;;;;;;;;5049369;28;20052;-67
2023/01/05 15:32:50;;;;;;;19.25;12.77;;;;;;;;;;5055074;28;20103;-67
2023/01/05 15:35:19;;;;;;;25.55;16.92;;;;;;;;;;5049171;28;20149;-68
2023/01/05 15:37:47;;;;;;;36.53;20.85;;;;;;;;;;5047672;28;20718;-68
2023/01/05 15:40:19;;;;;;;65.38;45.35;;;;;;;;;;5043879;28;20148;-68
2023/01/05 15:42:48;;;;;;;57.95;42.45;;;;;;;;;;5035971;28;20037;-68
2023/01/05 15:45:20;;;;;;;44.95;28.42;;;;;;;;;;5039773;28;20122;-67
2023/01/05 15:47:47;;;;;;;34.95;20.25;;;;;;;;;;5038221;28;20068;-68
2023/01/05 15:50:19;;;;;;;21.98;12.02;;;;;;;;;;5044457;28;20155;-67
2023/01/05 15:52:52;;;;;;;27.65;16.52;;;;;;;;;;5041153;28;20080;-67
2023/01/05 15:55:19;;;;;;;33.05;22.60;;;;;;;;;;5042427;28;20128;-69
2023/01/05 15:58:12;;;;;;;35.80;23.20;;;;;;;;;;5044055;28;20049;-68
2023/01/05 16:00:38;;;;;;;;;;;;;;;;;;5038862;28;20041;-67
2023/01/05 16:03:25;;;;;;;32.00;23.45;;;;;;;;;;5042417;28;19930;-68
2023/01/05 16:05:59;;;;;;;24.20;16.70;;;;;;;;;;5037572;27;20126;-68
2023/01/05 16:08:26;;;;;;;57.00;35.28;;;;;;;;;;5041143;28;20043;-68
2023/01/05 16:10:56;;;;;;;31.73;22.33;;;;;;;;;;5034754;28;20040;-68
2023/01/05 16:13:42;;;;;;;79.53;58.22;;;;;;;;;;5037087;28;20033;-68
2023/01/05 16:16:32;;;;;;;53.17;33.92;;;;;;;;;;5044723;28;20040;-68
2023/01/05 16:19:31;;;;;;;88.50;57.97;;;;;;;;;;5042779;28;20126;-68
2023/01/05 16:22:07;;;;;;;28.83;17.48;;;;;;;;;;5039727;28;20242;-68
2023/01/05 16:24:53;;;;;;;19.33;11.73;;;;;;;;;;5046082;28;20052;-67
2023/01/05 16:27:20;;;;;;;31.67;16.73;;;;;;;;;;5040638;28;20045;-67
2023/01/05 16:29:47;;;;;;;29.80;19.33;;;;;;;;;;5044659;28;20517;-67
2023/01/05 16:32:31;;;;;;;41.40;26.67;;;;;;;;;;5046707;28;20045;-67
2023/01/05 16:35:16;;;;;;;37.50;24.75;;;;;;;;;;5055536;28;20041;-67
2023/01/05 16:37:43;;;;;;;41.45;23.42;;;;;;;;;;5042012;28;20080;-67
2023/01/05 16:40:18;;;;;;;37.63;20.58;;;;;;;;;;5039871;28;20045;-68
2023/01/05 16:42:47;;;;;;;29.92;17.75;;;;;;;;;;5037116;28;20049;-68
2023/01/05 16:45:24;;;;;;;25.15;14.45;;;;;;;;;;5045042;28;20036;-67
2023/01/05 16:47:53;;;;;;;21.25;12.13;;;;;;;;;;5034706;28;20167;-68
2023/01/05 16:50:20;;;;;;;22.80;14.40;;;;;;;;;;5045728;28;20045;-68
2023/01/05 16:53:03;;;;;;;42.95;22.15;;;;;;;;;;5041836;28;20049;-67
2023/01/05 16:55:30;;;;;;;27.55;14.15;;;;;;;;;;5048334;28;20061;-67
2023/01/05 16:57:57;;;;;;;19.20;12.25;;;;;;;;;;5037891;28;20047;-67
2023/01/05 17:00:27;;;;;;;33.15;18.08;;;;;;;;;;5041289;28;20037;-67
2023/01/05 17:02:54;;;;;;;21.08;12.55;;;;;;;;;;5049479;28;20033;-69
2023/01/05 17:05:23;;;;;;;26.42;12.57;;;;;;;;;;5039902;28;20133;-65
2023/01/05 17:07:54;;;;;;;38.60;26.45;;;;;;;;;;5053459;28;20041;-68
2023/01/05 17:10:23;;;;;;;34.50;21.75;;;;;;;;;;5035732;28;20044;-67
2023/01/05 17:13:01;;;;;;;34.03;23.10;;;;;;;;;;5040894;28;20103;-68
2023/01/05 17:15:30;;;;;;;27.70;18.35;;;;;;;;;;5034681;28;20091;-68
2023/01/05 17:17:57;;;;;;;25.90;17.55;;;;;;;;;;5044292;28;20064;-67
2023/01/05 17:20:25;;;;;;;35.70;18.35;;;;;;;;;;5033285;28;20477;-67
2023/01/05 17:22:53;;;;;;;30.38;24.67;;;;;;;;;;5042361;28;20645;-67
2023/01/05 17:25:20;;;;;;;55.03;30.17;;;;;;;;;;5045770;28;20854;-67
2023/01/05 17:27:46;;;;;;;145.48;83.22;;;;;;;;;;5045082;28;20103;-68
2023/01/05 17:30:19;;;;;;;111.97;68.13;;;;;;;;;;5039465;28;20870;-67
2023/01/05 17:32:46;;;;;;;162.88;106.55;;;;;;;;;;5045098;28;20791;-68
2023/01/05 17:35:13;;;;;;;139.50;92.63;;;;;;;;;;5047510;28;20041;-68
2023/01/05 17:37:45;;;;;;;155.23;103.93;;;;;;;;;;5044756;28;20056;-68
2023/01/05 17:40:14;;;;;;;45.75;26.02;;;;;;;;;;5044209;28;20111;-67
2023/01/05 17:42:41;;;;;;;55.90;35.13;;;;;;;;;;5045736;28;20771;-68
2023/01/05 17:45:12;;;;;;;110.78;75.88;;;;;;;;;;5042979;28;20060;-68
2023/01/05 17:47:38;;;;;;;46.08;25.50;;;;;;;;;;5039478;28;20060;-68
2023/01/05 17:50:06;;;;;;;51.75;32.65;;;;;;;;;;5046539;28;20450;-68
2023/01/05 17:52:32;;;;;;;63.28;35.95;;;;;;;;;;5037805;28;20057;-68
2023/01/05 17:54:59;;;;;;;72.45;37.03;;;;;;;;;;5041650;28;20044;-68
2023/01/05 17:57:26;;;;;;;71.53;41.00;;;;;;;;;;5036060;28;20458;-67
2023/01/05 17:59:52;;;;;;;66.00;39.65;;;;;;;;;;5044557;28;20103;-67
2023/01/05 18:02:19;;;;;;;55.58;32.97;;;;;;;;;;5041439;28;20441;-68
2023/01/05 18:04:45;;;;;;;64.95;38.90;;;;;;;;;;5045382;28;20069;-66
2023/01/05 18:07:12;;;;;;;73.13;40.60;;;;;;;;;;5039891;28;20102;-66
2023/01/05 18:09:39;;;;;;;68.53;40.00;;;;;;;;;;5043059;28;20072;-66
2023/01/05 18:12:06;;;;;;;76.63;39.08;;;;;;;;;;5038300;28;20830;-66
2023/01/05 18:14:32;;;;;;;63.28;37.97;;;;;;;;;;5036434;28;20823;-65
2023/01/05 18:16:59;;;;;;;70.93;33.00;;;;;;;;;;5038205;28;20044;-66
2023/01/05 18:19:26;;;;;;;39.05;22.60;;;;;;;;;;5035933;28;20045;-66
2023/01/05 18:21:59;;;;;;;49.33;32.67;;;;;;;;;;5046481;28;20045;-66
2023/01/05 18:24:26;;;;;;;51.45;29.13;;;;;;;;;;5034726;28;20048;-66
2023/01/05 18:26:53;;;;;;;47.13;30.30;;;;;;;;;;5039282;28;20790;-66
2023/01/05 18:29:21;;;;;;;75.32;41.10;;;;;;;;;;5044911;28;20126;-66
2023/01/05 18:31:48;;;;;;;63.67;31.92;;;;;;;;;;5041547;28;20046;-66
2023/01/05 18:34:14;;;;;;;43.58;30.17;;;;;;;;;;5038404;28;20529;-66
2023/01/05 18:36:41;;;;;;;49.42;28.05;;;;;;;;;;5047382;28;20045;-67
2023/01/05 18:39:08;;;;;;;44.83;33.85;;;;;;;;;;5039133;28;20501;-66
2023/01/05 18:41:34;;;;;;;47.15;27.38;;;;;;;;;;5037078;28;20538;-66
2023/01/05 18:44:01;;;;;;;90.65;60.92;;;;;;;;;;5041287;28;20048;-67
2023/01/05 18:46:28;;;;;;;49.10;31.88;;;;;;;;;;5032336;28;20048;-67
2023/01/05 18:48:55;;;;;;;48.10;34.80;;;;;;;;;;5033583;28;20053;-67
2023/01/05 18:51:22;;;;;;;34.70;23.60;;;;;;;;;;5043936;28;20118;-68
2023/01/05 18:53:48;;;;;;;47.40;32.20;;;;;;;;;;5042127;28;20132;-66
2023/01/05 18:56:15;;;;;;;47.40;30.73;;;;;;;;;;5039694;28;20049;-67
2023/01/05 18:58:42;;;;;;;46.20;27.42;;;;;;;;;;5046581;28;20098;-66
2023/01/05 19:01:10;;;;;;;42.88;24.60;;;;;;;;;;5041318;28;20040;-65
2023/01/05 19:03:37;;;;;;;39.10;21.38;;;;;;;;;;5043845;28;20036;-65
2023/01/05 19:06:08;;;;;;;32.75;17.50;;;;;;;;;;5035517;28;20041;-66
2023/01/05 19:08:35;;;;;;;29.45;16.75;;;;;;;;;;5038634;28;20041;-66
2023/01/05 19:11:10;;;;;;;29.75;17.27;;;;;;;;;;5039815;28;20048;-67
2023/01/05 19:13:38;;;;;;;35.42;18.20;;;;;;;;;;5036631;28;20121;-67
2023/01/05 19:16:06;;;;;;;40.25;20.67;;;;;;;;;;5034552;28;20041;-66
2023/01/05 19:18:33;;;;;;;34.58;17.90;;;;;;;;;;5036877;28;20041;-66
2023/01/05 19:20:59;;;;;;;44.22;23.55;;;;;;;;;;5045100;28;20121;-67
2023/01/05 19:23:26;;;;;;;42.40;25.95;;;;;;;;;;5039358;28;21507;-66
2023/01/05 19:25:58;;;;;;;38.55;21.80;;;;;;;;;;5043797;28;20049;-66
2023/01/05 19:28:25;;;;;;;32.72;20.73;;;;;;;;;;5034022;28;20057;-67
2023/01/05 19:30:51;;;;;;;28.83;15.57;;;;;;;;;;5041667;28;20051;-66
2023/01/05 19:33:18;;;;;;;37.70;19.88;;;;;;;;;;5042206;28;20059;-67
2023/01/05 19:35:45;;;;;;;37.72;18.42;;;;;;;;;;5045290;28;20130;-66
2023/01/05 19:38:11;;;;;;;18.40;11.80;;;;;;;;;;5043622;28;20069;-66
2023/01/05 19:40:38;;;;;;;16.38;10.43;;;;;;;;;;5044728;28;20107;-66
2023/01/05 19:43:04;;;;;;;15.35;9.23;;;;;;;;;;5040372;28;20044;-66
2023/01/05 19:45:32;;;;;;;18.67;11.88;;;;;;;;;;5039022;28;20075;-66
2023/01/05 19:47:59;;;;;;;24.17;13.13;;;;;;;;;;5046616;28;20790;-67
2023/01/05 19:50:25;;;;;;;26.02;15.00;;;;;;;;;;5039222;28;21163;-67
2023/01/05 19:52:52;;;;;;;26.42;15.38;;;;;;;;;;5044308;28;20447;-66
2023/01/05 19:55:19;;;;;;;29.75;15.18;;;;;;;;;;5035699;28;20138;-66
2023/01/05 19:57:45;;;;;;;21.17;13.07;;;;;;;;;;5039420;28;20048;-66
2023/01/05 20:00:13;;;;;;;25.00;17.60;;;;;;;;;;5040101;28;20061;-67
2023/01/05 20:02:40;;;;;;;25.50;18.02;;;;;;;;;;5048245;28;20487;-66
2023/01/05 20:05:07;;;;;;;69.13;32.05;;;;;;;;;;5041236;28;20060;-66
2023/01/05 20:07:36;;;;;;;66.07;30.98;;;;;;;;;;5051490;28;20041;-67
2023/01/05 20:10:03;;;;;;;25.65;18.58;;;;;;;;;;5041684;28;20045;-67
2023/01/05 20:12:30;;;;;;;33.35;17.42;;;;;;;;;;5045312;28;20123;-67
2023/01/05 20:14:57;;;;;;;65.60;34.92;;;;;;;;;;5040165;28;20055;-66
2023/01/05 20:17:23;;;;;;;57.70;28.98;;;;;;;;;;5038052;28;20041;-67
2023/01/05 20:19:50;;;;;;;22.02;14.38;;;;;;;;;;5050302;28;20069;-68
2023/01/05 20:22:16;;;;;;;18.70;12.60;;;;;;;;;;5039635;28;20084;-66
2023/01/05 20:24:43;;;;;;;23.02;14.93;;;;;;;;;;5040524;28;20489;-67
2023/01/05 20:27:11;;;;;;;17.83;10.20;;;;;;;;;;5039123;28;20514;-67
2023/01/05 20:29:39;;;;;;;18.33;10.50;;;;;;;;;;5046795;28;20048;-67
2023/01/05 20:32:06;;;;;;;15.77;10.75;;;;;;;;;;5037672;28;20360;-67
2023/01/05 20:34:35;;;;;;;17.30;10.57;;;;;;;;;;5045259;28;20049;-67
2023/01/05 20:37:02;;;;;;;18.08;9.80;;;;;;;;;;5043215;28;20067;-67
2023/01/05 20:39:30;;;;;;;15.00;10.60;;;;;;;;;;5048164;28;20087;-67
2023/01/05 20:42:03;;;;;;;16.83;9.80;;;;;;;;;;5041315;28;20044;-65
2023/01/05 20:44:32;;;;;;;18.27;10.40;;;;;;;;;;5044924;28;20043;-68
2023/01/05 20:46:59;;;;;;;16.38;10.00;;;;;;;;;;5044551;28;20049;-67
2023/01/05 20:49:26;;;;;;;16.95;9.77;;;;;;;;;;5040893;28;20087;-66
2023/01/05 20:51:53;;;;;;;13.45;8.77;;;;;;;;;;5041433;28;20072;-67
2023/01/05 20:54:19;;;;;;;15.60;9.00;;;;;;;;;;5053757;28;20078;-67
2023/01/05 20:56:48;;;;;;;16.50;10.02;;;;;;;;;;5047321;28;20065;-66
2023/01/05 20:59:16;;;;;;;18.10;11.25;;;;;;;;;;5041283;28;20037;-67
2023/01/05 21:01:44;;;;;;;19.52;12.07;;;;;;;;;;5040818;28;20040;-65
2023/01/05 21:04:11;;;;;;;;;;;;;;;;;;5042501;28;20043;-66
2023/01/05 21:06:38;;;;;;;19.85;11.20;;;;;;;;;;5043816;28;19928;-67
2023/01/05 21:09:05;;;;;;;14.60;9.57;;;;;;;;;;5040708;28;20037;-67
2023/01/05 21:11:31;;;;;;;22.25;13.10;;;;;;;;;;5040789;28;20068;-66
2023/01/05 21:13:59;;;;;;;47.28;21.77;;;;;;;;;;5036823;28;20041;-66
2023/01/05 21:16:27;;;;;;;53.42;22.98;;;;;;;;;;5042573;28;20037;-66
2023/01/05 21:18:54;;;;;;;35.08;17.55;;;;;;;;;;5045889;28;20453;-66
2023/01/05 21:21:21;;;;;;;18.23;10.70;;;;;;;;;;5039730;28;20473;-66
2023/01/05 21:23:49;;;;;;;19.65;10.05;;;;;;;;;;5045159;28;20041;-66
2023/01/05 21:26:16;;;;;;;33.25;15.50;;;;;;;;;;5039172;28;20137;-65
2023/01/05 21:28:43;;;;;;;18.75;12.60;;;;;;;;;;5041100;28;20718;-65
2023/01/05 21:31:11;;;;;;;22.50;12.52;;;;;;;;;;5038989;28;20040;-65
2023/01/05 21:33:39;;;;;;;20.73;15.20;;;;;;;;;;5041870;28;20045;-66
2023/01/05 21:36:06;;;;;;;15.98;13.15;;;;;;;;;;5046268;28;20055;-65